createdAt,value
2022-10-10T00:06:45.556Z,3.45
2022-10-10T00:11:48.414Z,8.13
2022-10-10T00:16:51.173Z,4.28
2022-10-10T00:26:57.957Z,5.28
2022-10-10T00:32:00.760Z,3.85
2022-10-10T00:42:07.630Z,3.80
2022-10-10T00:47:11.011Z,4.10
2022-10-10T00:52:15.153Z,4.78
2022-10-10T00:57:17.957Z,4.65
2022-10-10T01:07:28.576Z,3.28
2022-10-10T01:12:39.036Z,6.70
2022-10-10T01:17:47.139Z,4.43
2022-10-10T01:23:03.718Z,7.28
2022-10-10T01:28:20.829Z,5.60
2022-10-10T01:33:30.438Z,5.45
2022-10-10T01:38:39.539Z,3.03
2022-10-10T01:43:43.731Z,7.82
2022-10-10T01:48:50.174Z,9.02
2022-10-10T01:54:02.164Z,7.40
2022-10-10T01:59:16.062Z,3.43
2022-10-10T02:04:24.013Z,2.97
2022-10-10T02:09:32.527Z,2.70
2022-10-10T02:14:42.002Z,4.32
2022-10-10T02:19:49.598Z,4.43
2022-10-10T02:24:53.815Z,4.15
2022-10-10T02:30:00.366Z,7.03
2022-10-10T02:35:09.276Z,5.18
2022-10-10T02:40:15.878Z,3.17
2022-10-10T02:45:21.016Z,6.93
2022-10-10T02:50:24.481Z,3.17
2022-10-10T02:55:27.881Z,3.53
2022-10-10T03:00:32.064Z,3.63
2022-10-10T03:05:34.903Z,4.28
2022-10-10T03:10:38.313Z,7.32
2022-10-10T03:15:42.486Z,7.40
2022-10-10T03:20:46.508Z,5.55
2022-10-10T03:25:49.449Z,3.58
2022-10-10T03:30:53.804Z,2.90
2022-10-10T03:35:56.564Z,3.20
2022-10-10T03:46:03.325Z,2.85
2022-10-10T03:51:06.440Z,8.50
2022-10-10T03:56:09.314Z,4.88
2022-10-10T04:01:14.323Z,4.43
2022-10-10T04:06:17.353Z,4.20
2022-10-10T04:11:20.103Z,5.88
2022-10-10T04:21:26.906Z,6.03
2022-10-10T04:26:29.713Z,5.82
2022-10-10T04:31:33.923Z,5.82
2022-10-10T04:36:36.837Z,4.80
2022-10-10T04:41:39.620Z,4.53
2022-10-10T04:51:46.277Z,3.40
2022-10-10T05:01:53.060Z,5.05
2022-10-10T05:06:55.908Z,4.32
2022-10-10T05:11:58.711Z,4.47
2022-10-10T05:22:05.469Z,5.85
2022-10-10T05:32:12.227Z,9.57
2022-10-10T05:37:15.110Z,3.53
2022-10-10T05:42:17.933Z,6.68
2022-10-10T05:47:26.756Z,6.65
2022-10-10T05:52:31.137Z,5.55
2022-10-10T05:57:33.886Z,7.32
2022-10-10T06:02:38.091Z,3.58
2022-10-10T06:08:03.544Z,6.80
2022-10-10T06:13:03.837Z,5.15
2022-10-10T06:18:08.988Z,3.70
2022-10-10T06:23:11.760Z,7.50
2022-10-10T06:33:19.658Z,8.88
2022-10-10T06:38:22.484Z,6.65
2022-10-10T06:48:31.341Z,4.43
2022-10-10T06:53:34.668Z,5.05
2022-10-10T06:58:37.459Z,4.70
2022-10-10T07:08:44.288Z,8.43
2022-10-10T07:13:47.176Z,3.28
2022-10-10T07:18:51.690Z,7.50
2022-10-10T07:23:54.582Z,7.20
2022-10-10T07:28:57.460Z,5.10
2022-10-10T07:34:01.764Z,4.22
2022-10-10T07:39:04.728Z,5.53
2022-10-10T07:44:07.481Z,4.47
2022-10-10T07:54:14.257Z,8.48
2022-10-10T07:59:17.093Z,8.20
2022-10-10T08:04:21.635Z,5.38
2022-10-10T08:09:25.248Z,5.43
2022-10-10T08:14:28.218Z,7.38
2022-10-10T08:19:32.387Z,6.88
2022-10-10T08:24:35.249Z,4.53
2022-10-10T08:29:37.984Z,5.25
2022-10-10T08:34:42.115Z,6.07
2022-10-10T08:39:44.827Z,5.80
2022-10-10T08:44:52.824Z,5.45
2022-10-10T08:50:01.817Z,5.15
2022-10-10T08:55:13.010Z,6.07
2022-10-10T09:00:19.982Z,5.63
2022-10-10T09:05:37.034Z,3.92
2022-10-10T09:10:50.716Z,4.97
2022-10-10T09:15:58.911Z,9.65
2022-10-10T09:21:09.788Z,6.38
2022-10-10T09:26:14.640Z,13.82
2022-10-10T09:31:20.188Z,5.85
2022-10-10T09:36:28.130Z,10.25
2022-10-10T09:41:36.772Z,4.88
2022-10-10T09:46:39.831Z,5.63
2022-10-10T09:51:44.207Z,8.45
2022-10-10T09:56:51.644Z,4.85
2022-10-10T10:02:03.503Z,7.75
2022-10-10T10:07:18.825Z,5.27
2022-10-10T10:12:24.307Z,7.30
2022-10-10T10:17:27.338Z,6.10
2022-10-10T10:22:38.410Z,6.50
2022-10-10T10:27:41.201Z,5.75
2022-10-10T10:32:54.489Z,7.55
2022-10-10T10:38:19.385Z,5.80
2022-10-10T10:43:38.902Z,7.20
2022-10-10T10:48:46.003Z,8.90
2022-10-10T10:53:55.700Z,7.68
2022-10-10T11:05:20.137Z,5.45
2022-10-10T11:10:25.638Z,5.03
2022-10-10T11:16:01.788Z,6.20
2022-10-10T11:21:06.216Z,4.18
2022-10-10T11:26:17.734Z,8.15
2022-10-10T11:31:25.034Z,3.60
2022-10-10T11:36:31.270Z,6.10
2022-10-10T11:41:39.094Z,4.25
2022-10-10T11:46:47.155Z,6.45
2022-10-10T11:52:31.951Z,8.30
2022-10-10T11:57:37.906Z,7.07
2022-10-10T12:02:42.266Z,5.13
2022-10-10T12:08:00.616Z,6.07
2022-10-10T12:13:26.068Z,5.30
2022-10-10T12:18:39.092Z,3.97
2022-10-10T12:23:43.227Z,6.72
2022-10-10T12:29:05.574Z,6.20
2022-10-10T12:34:16.485Z,6.25
2022-10-10T12:39:37.747Z,7.10
2022-10-10T12:44:47.275Z,9.88
2022-10-10T12:49:50.736Z,7.65
2022-10-10T12:54:55.267Z,6.15
2022-10-10T13:00:04.707Z,7.65
2022-10-10T13:05:11.317Z,9.32
2022-10-10T13:10:23.485Z,4.57
2022-10-10T13:15:27.737Z,6.13
2022-10-10T13:20:35.621Z,5.13
2022-10-10T13:25:40.367Z,3.72
2022-10-10T13:30:45.396Z,8.88
2022-10-10T13:35:49.727Z,8.50
2022-10-10T13:40:53.439Z,6.53
2022-10-10T13:45:59.891Z,6.38
2022-10-10T13:51:05.951Z,4.93
2022-10-10T13:56:13.831Z,5.00
2022-10-10T14:01:31.738Z,5.88
2022-10-10T14:06:35.690Z,6.78
2022-10-10T14:11:38.458Z,6.53
2022-10-10T14:16:42.595Z,4.30
2022-10-10T14:21:45.309Z,5.22
2022-10-10T14:26:48.172Z,9.38
2022-10-10T14:31:52.301Z,6.57
2022-10-10T14:36:55.126Z,6.53
2022-10-10T14:41:58.580Z,9.07
2022-10-10T14:47:02.694Z,8.13
2022-10-10T14:52:05.549Z,4.95
2022-10-10T14:57:10.296Z,4.88
2022-10-10T15:02:14.684Z,2.92
2022-10-10T15:07:17.953Z,4.95
2022-10-10T15:12:20.708Z,5.90
2022-10-10T15:17:27.037Z,8.05
2022-10-10T15:22:30.256Z,5.60
2022-10-10T15:27:33.268Z,4.68
2022-10-10T15:32:40.619Z,5.43
2022-10-10T15:37:43.784Z,3.60
2022-10-10T15:42:46.512Z,8.63
2022-10-10T15:47:50.630Z,6.75
2022-10-10T15:52:53.345Z,4.72
2022-10-10T15:57:56.140Z,8.07
2022-10-10T16:03:00.262Z,8.20
2022-10-10T16:08:03.090Z,5.07
2022-10-10T16:13:06.025Z,5.85
2022-10-10T16:18:10.363Z,10.20
2022-10-10T16:23:13.193Z,3.28
2022-10-10T16:28:16.021Z,8.57
2022-10-10T16:33:20.121Z,5.03
2022-10-10T16:38:22.881Z,9.45
2022-10-10T16:43:25.704Z,5.97
2022-10-10T16:48:31.195Z,6.20
2022-10-10T16:53:34.414Z,8.35
2022-10-10T16:58:39.537Z,6.53
2022-10-10T17:03:44.049Z,12.10
2022-10-10T17:08:47.928Z,14.80
2022-10-10T17:13:51.851Z,11.60
2022-10-10T17:18:56.305Z,11.80
2022-10-10T17:23:59.296Z,9.32
2022-10-10T17:29:52.325Z,11.73
2022-10-10T17:34:56.559Z,9.18
2022-10-10T17:39:59.661Z,14.20
2022-10-10T17:45:02.715Z,6.38
2022-10-10T17:50:08.629Z,12.00
2022-10-10T17:55:11.372Z,12.18
2022-10-10T18:00:15.232Z,12.63
2022-10-10T18:05:19.385Z,12.27
2022-10-10T18:10:22.155Z,13.13
2022-10-10T18:15:25.033Z,10.50
2022-10-10T18:20:29.269Z,12.77
2022-10-10T18:25:32.353Z,7.95
2022-10-10T18:30:35.085Z,11.25
2022-10-10T18:35:42.477Z,15.13
2022-10-10T18:40:45.210Z,7.93
2022-10-10T18:45:49.659Z,18.00
2022-10-10T18:50:53.794Z,12.85
2022-10-10T18:55:57.232Z,14.45
2022-10-10T19:01:01.252Z,18.90
2022-10-10T19:06:07.586Z,18.50
2022-10-10T19:11:20.344Z,15.57
2022-10-10T19:21:28.303Z,17.02
2022-10-10T19:26:33.356Z,15.73
2022-10-10T19:31:37.246Z,10.82
2022-10-10T19:36:42.318Z,17.92
2022-10-10T19:41:45.172Z,14.15
2022-10-10T19:51:54.086Z,12.98
2022-10-10T19:56:57.116Z,17.05
2022-10-10T20:01:59.916Z,15.43
2022-10-10T20:07:04.080Z,9.93
2022-10-10T20:12:09.074Z,20.17
2022-10-10T20:17:12.722Z,13.80
2022-10-10T20:22:16.877Z,15.40
2022-10-10T20:27:19.649Z,13.27
2022-10-10T20:37:26.344Z,12.07
2022-10-10T20:42:29.052Z,20.48
2022-10-10T20:52:35.884Z,14.35
2022-10-10T20:57:38.641Z,15.80
2022-10-10T21:07:45.965Z,20.02
2022-10-10T21:12:48.737Z,14.07
2022-10-10T21:22:55.951Z,15.57
2022-10-10T21:27:58.743Z,15.48
2022-10-10T21:38:05.533Z,10.20
2022-10-10T21:43:08.286Z,11.35
2022-10-10T21:53:15.875Z,14.10
2022-10-10T21:58:18.747Z,11.65
2022-10-10T22:08:25.439Z,12.02
2022-10-10T22:13:28.573Z,12.13
2022-10-10T22:18:32.128Z,18.30
2022-10-10T22:23:36.553Z,15.88
2022-10-10T22:28:39.871Z,12.85
2022-10-10T22:33:43.042Z,21.25
2022-10-10T22:38:47.173Z,16.55
2022-10-10T22:43:50.554Z,21.30
2022-10-10T22:48:53.782Z,18.70
2022-10-10T22:53:57.937Z,12.20
2022-10-10T22:59:00.683Z,19.98
2022-10-10T23:09:14.212Z,16.88
2022-10-10T23:14:18.603Z,16.30
2022-10-10T23:19:21.330Z,20.55
2022-10-10T23:29:28.082Z,21.83
2022-10-10T23:39:34.812Z,14.65
2022-10-10T23:44:37.604Z,20.77
2022-10-10T23:54:44.317Z,20.90
2022-10-10T23:59:47.112Z,17.77
